createdAt,value
2018-12-10T00:03:13.672Z,10.17
2018-12-10T00:06:21.372Z,7.97
2018-12-10T00:09:29.343Z,7.83
2018-12-10T00:12:47.901Z,10.43
2018-12-10T00:15:55.508Z,11.97
2018-12-10T00:19:13.103Z,11.37
2018-12-10T00:22:20.776Z,10.17
2018-12-10T00:25:28.388Z,11.93
2018-12-10T00:28:35.916Z,9.17
2018-12-10T00:35:02.029Z,8.97
2018-12-10T00:38:13.094Z,10.67
2018-12-10T00:41:23.950Z,11.63
2018-12-10T00:44:33.312Z,17.47
2018-12-10T00:47:53.868Z,12.23
2018-12-10T00:51:03.049Z,15.80
2018-12-10T00:54:20.648Z,11.90
2018-12-10T00:57:38.223Z,12.03
2018-12-10T01:00:45.725Z,11.53
2018-12-10T01:03:53.500Z,11.20
2018-12-10T01:07:00.996Z,9.50
2018-12-10T01:10:09.636Z,12.50
2018-12-10T01:13:17.098Z,13.73
2018-12-10T01:16:35.180Z,13.27
2018-12-10T01:19:42.736Z,10.33
2018-12-10T01:22:50.248Z,8.93
2018-12-10T01:29:13.471Z,13.63
2018-12-10T01:32:30.960Z,8.20
2018-12-10T01:35:48.495Z,10.23
2018-12-10T01:39:08.072Z,11.30
2018-12-10T01:42:15.557Z,8.97
2018-12-10T01:45:23.042Z,11.53
2018-12-10T01:48:30.540Z,9.10
2018-12-10T01:51:48.160Z,9.13
2018-12-10T01:55:06.827Z,8.07
2018-12-10T01:58:14.315Z,9.83
2018-12-10T02:01:31.876Z,7.80
2018-12-10T02:04:49.817Z,11.53
2018-12-10T02:08:07.471Z,11.80
2018-12-10T02:11:24.905Z,8.63
2018-12-10T02:14:42.472Z,9.53
2018-12-10T02:17:59.932Z,10.40
2018-12-10T02:21:17.481Z,10.40
2018-12-10T02:24:34.936Z,9.73
2018-12-10T02:27:52.462Z,5.63
2018-12-10T02:31:09.789Z,10.93
2018-12-10T02:34:27.628Z,5.27
2018-12-10T02:37:35.149Z,6.87
2018-12-10T02:40:42.626Z,7.47
2018-12-10T02:43:50.118Z,12.20
2018-12-10T02:46:57.598Z,10.80
2018-12-10T02:50:15.132Z,12.53
2018-12-10T02:53:32.613Z,10.07
2018-12-10T02:56:50.089Z,10.50
2018-12-10T03:00:08.497Z,10.07
2018-12-10T03:03:16.056Z,9.73
2018-12-10T03:06:23.633Z,7.90
2018-12-10T03:09:31.772Z,10.03
2018-12-10T03:12:39.384Z,9.73
2018-12-10T03:15:46.941Z,5.90
2018-12-10T03:18:54.470Z,4.40
2018-12-10T03:22:02.348Z,7.80
2018-12-10T03:25:09.833Z,4.83
2018-12-10T03:28:27.602Z,9.33
2018-12-10T03:31:35.078Z,4.97
2018-12-10T03:34:42.795Z,6.73
2018-12-10T03:37:50.251Z,5.17
2018-12-10T03:40:57.979Z,8.30
2018-12-10T03:44:15.337Z,7.47
2018-12-10T03:47:32.817Z,9.27
2018-12-10T03:50:50.200Z,5.70
2018-12-10T03:54:07.668Z,12.57
2018-12-10T03:57:25.103Z,8.97
2018-12-10T04:00:42.610Z,9.87
2018-12-10T04:04:00.096Z,8.47
2018-12-10T04:07:17.515Z,10.57
2018-12-10T04:10:34.956Z,6.30
2018-12-10T04:13:52.423Z,9.47
2018-12-10T04:17:10.426Z,8.13
2018-12-10T04:20:18.236Z,9.70
2018-12-10T04:23:25.711Z,7.03
2018-12-10T04:29:48.876Z,8.30
2018-12-10T04:33:06.365Z,12.40
2018-12-10T04:36:23.765Z,8.43
2018-12-10T04:39:41.357Z,13.70
2018-12-10T04:42:58.660Z,13.80
2018-12-10T04:46:16.141Z,13.47
2018-12-10T04:49:33.634Z,14.20
2018-12-10T04:52:51.019Z,16.80
2018-12-10T04:56:08.496Z,9.53
2018-12-10T04:59:26.011Z,13.43
2018-12-10T05:02:43.415Z,13.80
2018-12-10T05:06:00.843Z,12.50
2018-12-10T05:09:18.285Z,16.23
2018-12-10T05:12:35.891Z,10.13
2018-12-10T05:15:53.286Z,14.57
2018-12-10T05:19:10.864Z,12.67
2018-12-10T05:22:28.148Z,15.40
2018-12-10T05:25:45.660Z,12.50
2018-12-10T05:29:03.211Z,14.07
2018-12-10T05:32:20.555Z,12.23
2018-12-10T05:35:38.019Z,12.40
2018-12-10T05:38:45.372Z,10.43
2018-12-10T05:41:52.936Z,15.80
2018-12-10T05:45:00.444Z,8.60
2018-12-10T05:48:08.383Z,12.13
2018-12-10T05:51:25.955Z,18.43
2018-12-10T05:54:43.305Z,11.13
2018-12-10T05:58:00.787Z,14.50
2018-12-10T06:01:18.228Z,8.10
2018-12-10T06:04:35.765Z,12.37
2018-12-10T06:07:53.210Z,10.90
2018-12-10T06:11:10.608Z,10.37
2018-12-10T06:14:28.040Z,8.63
2018-12-10T06:17:45.610Z,12.53
2018-12-10T06:21:02.995Z,12.77
2018-12-10T06:24:20.431Z,8.27
2018-12-10T06:27:37.852Z,7.97
2018-12-10T06:30:55.309Z,9.90
2018-12-10T06:34:12.836Z,7.80
2018-12-10T06:37:37.367Z,6.77
2018-12-10T06:40:39.743Z,6.07
2018-12-10T06:43:47.205Z,7.03
2018-12-10T06:46:54.688Z,6.27
2018-12-10T06:50:12.463Z,12.57
2018-12-10T06:53:29.990Z,7.40
2018-12-10T06:56:47.415Z,8.10
2018-12-10T07:00:07.227Z,9.60
2018-12-10T07:03:14.714Z,13.47
2018-12-10T07:06:22.184Z,12.33
2018-12-10T07:09:29.663Z,9.63
2018-12-10T07:12:47.216Z,11.53
2018-12-10T07:16:04.633Z,13.90
2018-12-10T07:19:22.187Z,13.57
2018-12-10T07:22:39.577Z,13.97
2018-12-10T07:25:56.992Z,15.90
2018-12-10T07:29:14.465Z,17.10
2018-12-10T07:32:31.900Z,19.03
2018-12-10T07:35:49.392Z,13.77
2018-12-10T07:39:08.398Z,11.70
2018-12-10T07:42:16.266Z,17.27
2018-12-10T07:45:23.825Z,10.53
2018-12-10T07:48:31.729Z,13.83
2018-12-10T07:51:49.235Z,13.23
2018-12-10T07:55:07.598Z,16.33
2018-12-10T07:58:15.437Z,18.73
2018-12-10T08:01:32.936Z,11.50
2018-12-10T08:04:50.427Z,9.20
2018-12-10T08:08:08.380Z,9.83
2018-12-10T08:11:15.932Z,10.00
2018-12-10T08:14:23.424Z,16.03
2018-12-10T08:17:30.856Z,10.27
2018-12-10T08:20:38.325Z,12.43
2018-12-10T08:23:55.796Z,11.60
2018-12-10T08:27:13.365Z,10.67
2018-12-10T08:30:30.676Z,14.33
2018-12-10T08:33:48.183Z,11.40
2018-12-10T08:37:05.591Z,12.17
2018-12-10T08:40:25.939Z,12.77
2018-12-10T08:43:43.761Z,14.87
2018-12-10T08:47:01.427Z,10.80
2018-12-10T08:50:10.052Z,11.57
2018-12-10T08:53:27.443Z,12.97
2018-12-10T08:56:45.035Z,11.40
2018-12-10T09:00:02.894Z,14.60
2018-12-10T09:03:10.436Z,13.57
2018-12-10T09:06:17.927Z,11.63
2018-12-10T09:09:25.414Z,12.10
2018-12-10T09:12:33.330Z,11.13
2018-12-10T09:15:40.824Z,8.67
2018-12-10T09:18:48.299Z,8.83
2018-12-10T09:21:55.764Z,11.63
2018-12-10T09:25:03.712Z,8.57
2018-12-10T09:28:19.293Z,9.10
2018-12-10T09:31:31.137Z,10.87
2018-12-10T09:34:48.544Z,8.50
2018-12-10T09:38:05.955Z,12.60
2018-12-10T09:41:23.527Z,5.67
2018-12-10T09:44:40.933Z,7.27
2018-12-10T09:47:58.785Z,9.87
2018-12-10T09:51:06.243Z,9.83
2018-12-10T09:54:13.764Z,9.43
2018-12-10T09:57:21.269Z,8.97
2018-12-10T10:00:28.721Z,8.13
2018-12-10T10:03:46.144Z,8.87
2018-12-10T10:07:03.703Z,10.23
2018-12-10T10:10:21.184Z,13.30
2018-12-10T10:13:39.009Z,6.73
2018-12-10T10:16:46.515Z,9.00
2018-12-10T10:19:54.084Z,10.17
2018-12-10T10:23:01.584Z,6.97
2018-12-10T10:26:09.369Z,8.07
2018-12-10T10:29:16.912Z,9.13
2018-12-10T10:32:24.471Z,15.33
2018-12-10T10:35:31.988Z,11.37
2018-12-10T10:38:50.438Z,9.80
2018-12-10T10:41:57.918Z,11.47
2018-12-10T10:45:07.823Z,9.60
2018-12-10T10:48:15.362Z,9.47
2018-12-10T10:51:22.824Z,8.63
2018-12-10T10:54:30.380Z,6.40
2018-12-10T10:57:37.850Z,4.00
2018-12-10T11:01:00.464Z,6.00
2018-12-10T11:04:10.590Z,7.17
2018-12-10T11:07:18.462Z,7.53
2018-12-10T11:10:26.027Z,6.00
2018-12-10T11:13:33.559Z,5.33
2018-12-10T11:16:51.169Z,4.87
2018-12-10T11:20:10.488Z,9.07
2018-12-10T11:23:28.013Z,6.37
2018-12-10T11:26:45.455Z,3.77
2018-12-10T11:30:02.994Z,6.93
2018-12-10T11:33:20.496Z,7.63
2018-12-10T11:36:38.564Z,9.90
2018-12-10T11:39:56.101Z,7.83
2018-12-10T11:43:13.633Z,7.40
2018-12-10T11:46:31.099Z,5.00
2018-12-10T11:49:48.526Z,7.53
2018-12-10T11:53:06.512Z,3.03
2018-12-10T11:56:14.020Z,4.43
2018-12-10T11:59:21.939Z,4.93
2018-12-10T12:02:39.564Z,3.57
2018-12-10T12:05:56.919Z,5.67
2018-12-10T12:09:06.587Z,6.57
2018-12-10T12:12:14.103Z,6.97
2018-12-10T12:15:21.643Z,9.77
2018-12-10T12:18:40.048Z,9.70
2018-12-10T12:21:47.584Z,5.80
2018-12-10T12:24:55.086Z,5.67
2018-12-10T12:28:12.591Z,4.83
2018-12-10T12:31:30.394Z,5.60
2018-12-10T12:34:39.767Z,4.40
2018-12-10T12:37:47.319Z,6.57
2018-12-10T12:40:54.901Z,6.50
2018-12-10T12:44:12.406Z,3.70
2018-12-10T12:47:29.856Z,7.60
2018-12-10T12:50:47.446Z,6.00
2018-12-10T12:53:54.971Z,11.07
2018-12-10T12:57:02.500Z,4.43
2018-12-10T13:00:10.946Z,3.83
2018-12-10T13:03:18.591Z,4.90
2018-12-10T13:06:26.107Z,4.30
2018-12-10T13:09:34.175Z,4.23
2018-12-10T13:12:41.707Z,7.57
2018-12-10T13:15:49.283Z,3.37
2018-12-10T13:18:56.804Z,4.63
2018-12-10T13:22:04.205Z,3.67
2018-12-10T13:25:21.614Z,2.80
2018-12-10T13:28:39.017Z,6.27
2018-12-10T13:31:56.613Z,8.63
2018-12-10T13:35:14.605Z,4.50
2018-12-10T13:38:22.132Z,6.53
2018-12-10T13:41:29.724Z,7.07
2018-12-10T13:44:37.224Z,4.73
2018-12-10T13:47:54.672Z,4.90
2018-12-10T13:51:12.059Z,5.70
2018-12-10T13:54:29.496Z,6.90
2018-12-10T13:57:47.059Z,4.43
2018-12-10T14:01:04.519Z,4.40
2018-12-10T14:04:27.500Z,8.87
2018-12-10T14:07:35.645Z,6.07
2018-12-10T14:10:52.957Z,3.70
2018-12-10T14:14:10.418Z,8.00
2018-12-10T14:17:28.093Z,3.13
2018-12-10T14:20:36.480Z,5.60
2018-12-10T14:23:43.999Z,2.50
2018-12-10T14:27:01.803Z,7.83
2018-12-10T14:30:10.313Z,7.20
2018-12-10T14:33:18.259Z,5.07
2018-12-10T14:36:26.932Z,5.97
2018-12-10T14:39:33.949Z,6.37
2018-12-10T14:42:54.843Z,6.50
2018-12-10T14:46:12.406Z,6.93
2018-12-10T14:49:29.927Z,5.03
2018-12-10T14:52:47.445Z,4.43
2018-12-10T14:56:05.246Z,6.50
2018-12-10T14:59:12.820Z,3.57
2018-12-10T15:02:20.380Z,5.50
2018-12-10T15:05:27.887Z,4.17
2018-12-10T15:08:45.548Z,4.90
2018-12-10T15:12:03.032Z,3.07
2018-12-10T15:15:20.469Z,5.90
2018-12-10T15:18:37.904Z,5.93
2018-12-10T15:21:55.452Z,2.00
2018-12-10T15:25:13.390Z,7.43
2018-12-10T15:28:20.977Z,4.50
2018-12-10T15:31:28.543Z,6.37
2018-12-10T15:34:36.069Z,4.13
2018-12-10T15:37:53.500Z,2.10
2018-12-10T15:41:01.180Z,4.50
2018-12-10T15:44:08.804Z,3.17
2018-12-10T15:47:16.280Z,4.90
2018-12-10T15:50:23.807Z,6.97
2018-12-10T15:53:41.423Z,6.47
2018-12-10T15:56:58.868Z,6.47
2018-12-10T16:00:16.310Z,6.33
2018-12-10T16:03:33.758Z,8.13
2018-12-10T16:06:51.128Z,11.83
2018-12-10T16:10:10.185Z,13.10
2018-12-10T16:13:27.767Z,14.10
2018-12-10T16:16:45.566Z,11.30
2018-12-10T16:19:53.091Z,13.10
2018-12-10T16:23:00.719Z,12.90
2018-12-10T16:26:08.322Z,9.27
2018-12-10T16:29:25.822Z,11.00
2018-12-10T16:32:43.736Z,11.03
2018-12-10T16:35:52.199Z,13.23
2018-12-10T16:39:00.487Z,8.90
2018-12-10T16:42:08.093Z,11.63
2018-12-10T16:45:25.525Z,11.83
2018-12-10T16:48:42.885Z,8.80
2018-12-10T16:52:01.092Z,9.73
2018-12-10T16:55:09.716Z,11.20
2018-12-10T16:58:17.244Z,12.30
2018-12-10T17:01:24.797Z,9.57
2018-12-10T17:04:32.308Z,13.00
2018-12-10T17:07:39.996Z,13.30
2018-12-10T17:10:47.517Z,10.50
2018-12-10T17:13:56.261Z,9.50
2018-12-10T17:17:03.712Z,6.50
2018-12-10T17:20:12.239Z,6.50
2018-12-10T17:23:20.044Z,11.63
2018-12-10T17:26:27.563Z,12.60
2018-12-10T17:29:45.096Z,10.90
2018-12-10T17:33:02.504Z,12.47
2018-12-10T17:36:20.880Z,6.07
2018-12-10T17:39:28.340Z,8.00
2018-12-10T17:42:36.075Z,13.00
2018-12-10T17:45:43.572Z,10.93
2018-12-10T17:48:51.201Z,9.40
2018-12-10T17:51:58.780Z,8.27
2018-12-10T17:55:07.742Z,11.60
2018-12-10T17:58:15.272Z,12.57
2018-12-10T18:01:24.677Z,9.80
2018-12-10T18:04:32.172Z,17.57
2018-12-10T18:07:39.732Z,14.40
2018-12-10T18:10:47.224Z,18.27
2018-12-10T18:14:04.640Z,17.13
2018-12-10T18:17:22.089Z,15.10
2018-12-10T18:20:39.520Z,14.90
2018-12-10T18:23:57.081Z,14.83
2018-12-10T18:27:14.488Z,14.63
2018-12-10T18:30:32.758Z,17.20
2018-12-10T18:33:40.769Z,18.90
2018-12-10T18:36:58.272Z,14.17
2018-12-10T18:40:09.749Z,11.03
2018-12-10T18:43:17.769Z,14.97
2018-12-10T18:46:25.284Z,15.27
2018-12-10T18:49:32.845Z,13.90
2018-12-10T18:52:40.639Z,13.93
2018-12-10T18:55:58.082Z,10.60
2018-12-10T18:59:15.526Z,11.03
2018-12-10T19:02:33.063Z,13.87
2018-12-10T19:05:50.504Z,11.67
2018-12-10T19:09:09.488Z,11.50
2018-12-10T19:12:28.565Z,12.83
2018-12-10T19:15:36.113Z,10.23
2018-12-10T19:18:53.860Z,15.03
2018-12-10T19:22:11.307Z,11.97
2018-12-10T19:25:28.699Z,17.23
2018-12-10T19:28:46.144Z,14.67
2018-12-10T19:32:03.667Z,14.80
2018-12-10T19:35:21.111Z,14.50
2018-12-10T19:38:38.578Z,14.50
2018-12-10T19:41:56.063Z,12.53
2018-12-10T19:45:13.945Z,10.10
2018-12-10T19:48:21.728Z,13.10
2018-12-10T19:51:29.278Z,15.90
2018-12-10T19:54:36.914Z,15.33
2018-12-10T19:57:44.409Z,20.10
2018-12-10T20:00:51.884Z,16.20
2018-12-10T20:03:59.704Z,14.87
2018-12-10T20:07:08.365Z,17.00
2018-12-10T20:10:16.348Z,16.87
2018-12-10T20:13:23.843Z,12.50
2018-12-10T20:16:31.317Z,11.40
2018-12-10T20:19:38.837Z,13.47
2018-12-10T20:22:46.303Z,16.90
2018-12-10T20:26:03.775Z,11.80
2018-12-10T20:29:21.312Z,15.57
2018-12-10T20:32:38.696Z,14.47
2018-12-10T20:35:56.154Z,14.27
2018-12-10T20:39:13.679Z,15.13
2018-12-10T20:42:31.093Z,12.37
2018-12-10T20:45:48.547Z,15.57
2018-12-10T20:49:06.483Z,15.10
2018-12-10T20:52:14.487Z,14.43
2018-12-10T20:55:22.504Z,16.67
2018-12-10T20:58:29.993Z,12.43
2018-12-10T21:01:37.477Z,13.00
2018-12-10T21:04:44.948Z,19.53
2018-12-10T21:07:52.999Z,11.13
2018-12-10T21:11:00.501Z,16.87
2018-12-10T21:14:08.503Z,15.57
2018-12-10T21:17:16.764Z,12.53
2018-12-10T21:20:24.321Z,17.43
2018-12-10T21:23:41.887Z,15.07
2018-12-10T21:26:59.674Z,21.33
2018-12-10T21:30:08.589Z,14.37
2018-12-10T21:33:16.098Z,21.33
2018-12-10T21:36:23.576Z,22.27
2018-12-10T21:39:31.109Z,20.90
2018-12-10T21:42:49.361Z,16.67
2018-12-10T21:45:57.377Z,12.97
2018-12-10T21:49:15.012Z,24.43
2018-12-10T21:52:41.707Z,18.90
2018-12-10T21:59:05.972Z,19.33
2018-12-10T22:02:13.849Z,14.97
2018-12-10T22:05:21.532Z,13.70
2018-12-10T22:08:29.156Z,19.70
2018-12-10T22:11:36.687Z,19.03
2018-12-10T22:14:44.164Z,13.90
2018-12-10T22:18:01.575Z,20.17
2018-12-10T22:21:19.122Z,17.40
2018-12-10T22:24:36.472Z,16.33
2018-12-10T22:27:53.965Z,24.20
2018-12-10T22:31:11.520Z,16.03
2018-12-10T22:34:28.928Z,19.20
2018-12-10T22:37:46.475Z,16.30
2018-12-10T22:41:04.012Z,16.90
2018-12-10T22:44:21.372Z,18.90
2018-12-10T22:47:38.872Z,21.30
2018-12-10T22:50:56.613Z,16.30
2018-12-10T22:54:04.176Z,18.03
2018-12-10T22:57:12.323Z,20.17
2018-12-10T23:00:35.744Z,18.60
2018-12-10T23:03:43.192Z,13.70
2018-12-10T23:06:50.680Z,14.73
2018-12-10T23:10:09.529Z,16.07
2018-12-10T23:13:17.487Z,19.40
2018-12-10T23:16:35.820Z,18.60
2018-12-10T23:19:43.792Z,19.37
2018-12-10T23:22:51.316Z,21.40
2018-12-10T23:25:58.783Z,18.10
2018-12-10T23:29:06.400Z,20.30
2018-12-10T23:32:13.915Z,22.47
2018-12-10T23:35:31.674Z,18.23
2018-12-10T23:38:39.239Z,19.23
2018-12-10T23:41:46.947Z,24.33
2018-12-10T23:44:55.961Z,16.37
2018-12-10T23:48:03.821Z,14.00
2018-12-10T23:51:11.452Z,17.37
2018-12-10T23:54:18.983Z,19.87
2018-12-10T23:57:27.191Z,25.13
